createdAt,value
2022-12-16T00:00:46.456Z,30.00
2022-12-16T00:03:23.145Z,29.93
2022-12-16T00:05:58.902Z,31.23
2022-12-16T00:08:35.689Z,30.10
2022-12-16T00:11:09.925Z,31.53
2022-12-16T00:13:43.090Z,30.47
2022-12-16T00:16:18.288Z,31.83
2022-12-16T00:18:54.173Z,30.97
2022-12-16T00:21:30.007Z,31.17
2022-12-16T00:24:03.503Z,31.23
2022-12-16T00:26:36.649Z,28.47
2022-12-16T00:29:11.595Z,30.87
2022-12-16T00:31:48.776Z,29.50
2022-12-16T00:34:24.696Z,29.80
2022-12-16T00:36:58.409Z,31.00
2022-12-16T00:39:31.999Z,30.50
2022-12-16T00:42:05.426Z,29.43
2022-12-16T00:44:39.754Z,30.37
2022-12-16T00:47:14.725Z,30.37
2022-12-16T00:49:49.577Z,30.47
2022-12-16T00:52:23.485Z,29.60
2022-12-16T00:54:56.958Z,29.10
2022-12-16T00:57:33.745Z,29.27
2022-12-16T01:00:09.872Z,28.63
2022-12-16T01:02:43.453Z,29.30
2022-12-16T01:05:27.148Z,28.27
2022-12-16T01:08:01.420Z,27.90
2022-12-16T01:10:38.537Z,25.53
2022-12-16T01:13:12.852Z,27.67
2022-12-16T01:15:46.399Z,27.47
2022-12-16T01:18:20.216Z,26.73
2022-12-16T01:20:56.013Z,26.53
2022-12-16T01:23:30.036Z,26.63
2022-12-16T01:26:04.501Z,26.60
2022-12-16T01:28:37.733Z,25.83
2022-12-16T01:31:12.816Z,24.63
2022-12-16T01:33:46.508Z,24.80
2022-12-16T01:36:21.264Z,25.43
2022-12-16T01:38:55.240Z,24.20
2022-12-16T01:41:28.637Z,27.87
2022-12-16T01:44:15.532Z,25.30
2022-12-16T01:46:52.936Z,25.87
2022-12-16T01:49:28.546Z,26.50
2022-12-16T01:52:05.253Z,26.07
2022-12-16T01:54:41.363Z,27.17
2022-12-16T01:57:17.793Z,25.50
2022-12-16T01:59:53.314Z,25.30
2022-12-16T02:02:28.008Z,25.90
2022-12-16T02:05:18.699Z,27.20
2022-12-16T02:07:57.458Z,26.13
2022-12-16T02:10:34.676Z,25.63
2022-12-16T02:13:14.446Z,24.93
2022-12-16T02:15:51.763Z,26.10
2022-12-16T02:18:31.141Z,24.20
2022-12-16T02:21:14.833Z,25.63
2022-12-16T02:24:11.634Z,25.00
2022-12-16T02:26:58.231Z,24.90
2022-12-16T02:29:41.367Z,25.00
2022-12-16T02:32:20.317Z,23.37
2022-12-16T02:34:58.005Z,25.20
2022-12-16T02:37:38.703Z,24.17
2022-12-16T02:40:17.811Z,25.20
2022-12-16T02:42:56.570Z,23.80
2022-12-16T02:45:34.440Z,24.43
2022-12-16T02:48:14.252Z,24.70
2022-12-16T02:50:57.132Z,25.10
2022-12-16T02:53:33.352Z,25.83
2022-12-16T02:56:15.943Z,26.23
2022-12-16T02:58:57.753Z,24.73
2022-12-16T03:01:35.124Z,24.67
2022-12-16T03:04:12.626Z,25.57
2022-12-16T03:06:49.862Z,24.70
2022-12-16T03:09:24.423Z,23.73
2022-12-16T03:12:00.092Z,25.50
2022-12-16T03:14:35.425Z,25.93
2022-12-16T03:17:10.227Z,25.70
2022-12-16T03:19:50.109Z,24.50
2022-12-16T03:22:25.747Z,24.47
2022-12-16T03:25:00.399Z,26.13
2022-12-16T03:27:37.060Z,23.97
2022-12-16T03:30:12.438Z,25.00
2022-12-16T03:32:49.373Z,25.33
2022-12-16T03:35:28.967Z,25.00
2022-12-16T03:38:03.545Z,24.00
2022-12-16T03:40:38.170Z,24.57
2022-12-16T03:43:12.264Z,23.33
2022-12-16T03:45:47.109Z,24.30
2022-12-16T03:48:26.612Z,24.03
2022-12-16T03:51:04.839Z,24.93
2022-12-16T03:53:37.974Z,24.83
2022-12-16T03:56:12.036Z,23.80
2022-12-16T03:58:50.064Z,25.20
2022-12-16T04:01:23.756Z,22.73
2022-12-16T04:03:59.551Z,24.57
2022-12-16T04:06:36.051Z,23.33
2022-12-16T04:09:10.862Z,25.57
2022-12-16T04:12:02.591Z,24.50
2022-12-16T04:14:54.080Z,24.10
2022-12-16T04:17:46.827Z,24.27
2022-12-16T04:20:38.805Z,23.13
2022-12-16T04:23:30.954Z,24.80
2022-12-16T04:26:06.894Z,23.77
2022-12-16T04:28:40.245Z,25.20
2022-12-16T04:31:13.676Z,21.57
2022-12-16T04:34:03.978Z,24.33
2022-12-16T04:36:56.426Z,24.13
2022-12-16T04:39:47.031Z,23.53
2022-12-16T04:42:39.851Z,22.87
2022-12-16T04:45:35.744Z,24.13
2022-12-16T04:48:34.898Z,24.37
2022-12-16T04:51:29.209Z,23.40
2022-12-16T04:54:19.541Z,23.03
2022-12-16T04:57:09.521Z,24.20
2022-12-16T05:00:04.056Z,23.17
2022-12-16T05:02:57.065Z,22.97
2022-12-16T05:05:47.287Z,24.30
2022-12-16T05:08:37.545Z,23.70
2022-12-16T05:11:28.273Z,23.10
2022-12-16T05:14:19.265Z,23.50
2022-12-16T05:17:16.901Z,24.07
2022-12-16T05:20:09.180Z,24.03
2022-12-16T05:23:00.620Z,21.77
2022-12-16T05:25:51.764Z,26.00
2022-12-16T05:28:42.323Z,23.17
2022-12-16T05:31:32.819Z,23.60
2022-12-16T05:34:39.718Z,23.17
2022-12-16T05:37:29.966Z,24.03
2022-12-16T05:40:35.054Z,21.83
2022-12-16T05:43:25.273Z,23.77
2022-12-16T05:46:15.775Z,23.93
2022-12-16T05:49:05.957Z,22.13
2022-12-16T05:51:59.794Z,23.50
2022-12-16T05:54:49.730Z,23.00
2022-12-16T05:57:40.176Z,23.33
2022-12-16T06:00:34.155Z,25.93
2022-12-16T06:03:24.770Z,22.90
2022-12-16T06:06:23.722Z,22.00
2022-12-16T06:09:15.500Z,24.10
2022-12-16T06:12:06.214Z,23.23
2022-12-16T06:14:56.142Z,23.77
2022-12-16T06:17:46.395Z,23.90
2022-12-16T06:20:37.032Z,24.93
2022-12-16T06:23:27.999Z,24.43
2022-12-16T06:26:20.036Z,24.20
2022-12-16T06:29:10.279Z,24.50
2022-12-16T06:32:05.593Z,24.97
2022-12-16T06:34:56.710Z,25.70
2022-12-16T06:37:47.447Z,23.67
2022-12-16T06:40:41.277Z,25.70
2022-12-16T06:43:37.967Z,24.87
2022-12-16T06:46:28.782Z,25.73
2022-12-16T06:49:19.800Z,25.87
2022-12-16T06:52:10.381Z,26.57
2022-12-16T06:55:00.901Z,24.50
2022-12-16T06:57:51.642Z,22.17
2022-12-16T07:00:55.342Z,22.47
2022-12-16T07:03:46.505Z,23.83
2022-12-16T07:06:37.822Z,24.57
2022-12-16T07:09:28.354Z,25.67
2022-12-16T07:12:19.261Z,27.80
2022-12-16T07:15:09.904Z,25.47
2022-12-16T07:18:03.444Z,25.77
2022-12-16T07:20:55.070Z,23.33
2022-12-16T07:23:46.412Z,23.40
2022-12-16T07:26:37.645Z,23.83
2022-12-16T07:29:28.085Z,25.27
2022-12-16T07:32:18.977Z,24.70
2022-12-16T07:35:11.122Z,25.17
2022-12-16T07:38:04.339Z,25.17
2022-12-16T07:40:55.201Z,23.87
2022-12-16T07:43:46.084Z,23.70
2022-12-16T07:46:36.887Z,24.50
2022-12-16T07:49:27.582Z,23.57
2022-12-16T07:52:22.685Z,24.23
2022-12-16T07:55:13.281Z,24.67
2022-12-16T07:58:07.838Z,26.23
2022-12-16T08:01:04.967Z,25.73
2022-12-16T08:03:58.217Z,24.67
2022-12-16T08:06:48.388Z,25.33
2022-12-16T08:09:40.411Z,24.13
2022-12-16T08:12:30.744Z,25.03
2022-12-16T08:15:21.102Z,24.27
2022-12-16T08:18:12.881Z,25.40
2022-12-16T08:21:03.336Z,23.93
2022-12-16T08:23:55.068Z,23.60
2022-12-16T08:26:48.989Z,26.87
2022-12-16T08:29:45.155Z,25.20
2022-12-16T08:32:36.481Z,25.13
2022-12-16T08:35:29.018Z,26.40
2022-12-16T08:38:20.461Z,23.63
2022-12-16T08:41:18.911Z,25.10
2022-12-16T08:44:13.323Z,24.53
2022-12-16T08:47:08.856Z,24.93
2022-12-16T08:50:02.051Z,24.80
2022-12-16T08:52:54.539Z,24.50
2022-12-16T08:55:47.713Z,27.47
2022-12-16T08:58:38.297Z,27.40
2022-12-16T09:01:33.268Z,28.47
2022-12-16T09:04:26.388Z,26.47
2022-12-16T09:07:16.912Z,25.87
2022-12-16T09:10:09.738Z,27.10
2022-12-16T09:13:03.640Z,26.80
2022-12-16T09:15:54.276Z,26.43
2022-12-16T09:18:47.549Z,26.63
2022-12-16T09:21:38.779Z,26.50
2022-12-16T09:24:30.374Z,26.33
2022-12-16T09:27:21.177Z,26.00
2022-12-16T09:30:11.989Z,25.33
2022-12-16T09:33:03.094Z,24.83
2022-12-16T09:35:56.551Z,26.23
2022-12-16T09:38:46.747Z,26.53
2022-12-16T09:41:44.783Z,25.33
2022-12-16T09:44:40.509Z,25.20
2022-12-16T09:47:38.496Z,24.67
2022-12-16T09:50:37.643Z,26.00
2022-12-16T09:53:32.150Z,26.83
2022-12-16T09:56:24.232Z,26.20
2022-12-16T09:59:18.506Z,25.83
2022-12-16T10:02:09.182Z,26.30
2022-12-16T10:05:00.330Z,29.10
2022-12-16T10:07:55.402Z,27.33
2022-12-16T10:10:51.599Z,27.73
2022-12-16T10:13:48.028Z,26.43
2022-12-16T10:16:41.774Z,26.97
2022-12-16T10:19:50.466Z,26.70
2022-12-16T10:22:46.750Z,27.33
2022-12-16T10:25:39.874Z,27.77
2022-12-16T10:28:34.524Z,27.27
2022-12-16T10:31:35.164Z,28.60
2022-12-16T10:34:30.388Z,27.13
2022-12-16T10:37:21.487Z,28.23
2022-12-16T10:40:13.583Z,28.23
2022-12-16T10:43:06.529Z,27.90
2022-12-16T10:46:00.659Z,24.50
2022-12-16T10:48:56.323Z,27.33
2022-12-16T10:51:49.816Z,30.23
2022-12-16T10:54:45.274Z,36.17
2022-12-16T10:57:41.097Z,19.80
2022-12-16T11:00:35.319Z,28.03
2022-12-16T11:03:39.664Z,27.93
2022-12-16T11:06:32.719Z,26.97
2022-12-16T11:09:44.344Z,26.87
2022-12-16T11:12:42.148Z,26.87
2022-12-16T11:15:42.166Z,32.03
2022-12-16T11:18:33.681Z,29.93
2022-12-16T11:21:37.861Z,29.77
2022-12-16T11:24:33.554Z,25.03
2022-12-16T11:27:25.489Z,28.53
2022-12-16T11:30:16.906Z,27.33
2022-12-16T11:33:08.497Z,28.33
2022-12-16T11:36:00.566Z,26.37
2022-12-16T11:38:57.616Z,28.53
2022-12-16T11:41:50.058Z,29.17
2022-12-16T11:44:42.427Z,29.37
2022-12-16T11:47:36.973Z,25.47
2022-12-16T11:50:30.134Z,28.90
2022-12-16T11:53:21.585Z,27.27
2022-12-16T11:56:16.562Z,28.77
2022-12-16T11:59:08.999Z,27.37
2022-12-16T12:02:05.127Z,26.60
2022-12-16T12:04:55.765Z,27.87
2022-12-16T12:08:04.924Z,27.50
2022-12-16T12:11:12.973Z,29.37
2022-12-16T12:14:09.858Z,28.03
2022-12-16T12:17:10.057Z,28.33
2022-12-16T12:20:05.498Z,24.63
2022-12-16T12:22:57.035Z,27.83
2022-12-16T12:25:52.582Z,28.93
2022-12-16T12:28:51.562Z,28.03
2022-12-16T12:31:49.399Z,26.77
2022-12-16T12:34:43.342Z,19.47
2022-12-16T12:37:38.952Z,23.40
2022-12-16T12:40:53.005Z,29.70
2022-12-16T12:43:48.780Z,27.17
2022-12-16T12:46:41.609Z,28.50
2022-12-16T12:49:38.481Z,26.73
2022-12-16T12:52:49.092Z,26.90
2022-12-16T12:55:42.267Z,28.43
2022-12-16T12:58:33.198Z,27.50
2022-12-16T13:01:25.657Z,27.13
2022-12-16T13:04:17.921Z,27.57
2022-12-16T13:07:10.769Z,28.50
2022-12-16T13:10:01.038Z,32.60
2022-12-16T13:12:52.000Z,29.87
2022-12-16T13:15:52.535Z,29.23
2022-12-16T13:18:44.096Z,27.97
2022-12-16T13:21:53.458Z,28.20
2022-12-16T13:24:52.509Z,27.73
2022-12-16T13:27:43.151Z,27.33
2022-12-16T13:30:38.398Z,22.60
2022-12-16T13:33:42.931Z,23.60
2022-12-16T13:36:35.035Z,25.93
2022-12-16T13:39:42.042Z,28.10
2022-12-16T13:42:51.351Z,28.33
2022-12-16T13:45:51.039Z,29.20
2022-12-16T13:48:46.090Z,28.67
2022-12-16T13:51:56.800Z,26.33
2022-12-16T13:54:51.866Z,28.87
2022-12-16T13:57:43.187Z,29.87
2022-12-16T14:00:36.784Z,30.57
2022-12-16T14:03:31.051Z,29.90
2022-12-16T14:06:23.697Z,27.73
2022-12-16T14:09:14.875Z,29.37
2022-12-16T14:12:08.676Z,28.07
2022-12-16T14:15:04.497Z,28.93
2022-12-16T14:17:58.810Z,28.23
2022-12-16T14:20:55.399Z,47.87
2022-12-16T14:23:57.676Z,32.77
2022-12-16T14:26:48.381Z,29.67
2022-12-16T14:29:40.947Z,28.47
2022-12-16T14:32:44.803Z,29.13
2022-12-16T14:35:36.649Z,28.97
2022-12-16T14:38:47.992Z,26.73
2022-12-16T14:41:39.741Z,29.47
2022-12-16T14:44:35.860Z,26.07
2022-12-16T14:47:34.352Z,29.30
2022-12-16T14:50:36.684Z,28.60
2022-12-16T14:53:35.260Z,26.73
2022-12-16T14:56:37.656Z,26.40
2022-12-16T14:59:30.935Z,27.43
2022-12-16T15:02:31.018Z,28.00
2022-12-16T15:05:21.576Z,26.97
2022-12-16T15:08:11.751Z,28.07
2022-12-16T15:11:05.536Z,28.43
2022-12-16T15:14:03.383Z,26.27
2022-12-16T15:16:57.201Z,29.03
2022-12-16T15:19:49.469Z,26.50
2022-12-16T15:22:39.845Z,27.07
2022-12-16T15:25:37.570Z,25.90
2022-12-16T15:28:41.516Z,26.87
2022-12-16T15:31:42.173Z,29.03
2022-12-16T15:34:35.932Z,27.70
2022-12-16T15:37:32.743Z,28.13
2022-12-16T15:40:23.739Z,27.43
2022-12-16T15:43:14.107Z,28.60
2022-12-16T15:46:07.016Z,29.97
2022-12-16T15:48:58.925Z,28.57
2022-12-16T15:51:50.278Z,30.37
2022-12-16T15:54:41.313Z,29.30
2022-12-16T15:57:44.278Z,29.07
2022-12-16T16:00:40.151Z,29.90
2022-12-16T16:03:38.183Z,31.60
2022-12-16T16:06:34.684Z,29.93
2022-12-16T16:09:31.706Z,30.40
2022-12-16T16:12:27.689Z,30.20
2022-12-16T16:15:19.927Z,31.03
2022-12-16T16:18:13.253Z,30.00
2022-12-16T16:21:03.681Z,28.50
2022-12-16T16:23:55.948Z,29.57
2022-12-16T16:26:46.881Z,30.47
2022-12-16T16:29:48.753Z,31.30
2022-12-16T16:32:42.940Z,30.77
2022-12-16T16:35:33.716Z,31.23
2022-12-16T16:38:23.884Z,34.10
2022-12-16T16:41:16.414Z,31.03
2022-12-16T16:44:06.608Z,31.77
2022-12-16T16:46:57.428Z,31.13
2022-12-16T16:49:48.679Z,32.40
2022-12-16T16:52:40.206Z,31.47
2022-12-16T16:55:32.850Z,29.07
2022-12-16T16:58:26.312Z,29.93
2022-12-16T17:01:16.636Z,32.53
2022-12-16T17:04:07.295Z,31.33
2022-12-16T17:06:57.884Z,31.90
2022-12-16T17:09:48.095Z,32.27
2022-12-16T17:12:38.929Z,32.33
2022-12-16T17:15:36.298Z,32.73
2022-12-16T17:18:27.152Z,32.17
2022-12-16T17:21:17.557Z,31.47
2022-12-16T17:24:07.922Z,32.40
2022-12-16T17:27:01.392Z,31.87
2022-12-16T17:29:52.946Z,32.03
2022-12-16T17:32:44.450Z,31.87
2022-12-16T17:35:43.138Z,32.27
2022-12-16T17:38:42.396Z,32.23
2022-12-16T17:41:32.600Z,32.53
2022-12-16T17:44:22.762Z,32.37
2022-12-16T17:47:13.912Z,30.53
2022-12-16T17:50:05.558Z,30.87
2022-12-16T17:52:56.094Z,32.43
2022-12-16T17:55:46.260Z,27.60
2022-12-16T17:58:36.680Z,30.30
2022-12-16T18:01:27.030Z,31.30
2022-12-16T18:04:17.248Z,31.27
2022-12-16T18:07:08.608Z,30.30
2022-12-16T18:09:58.894Z,32.30
2022-12-16T18:12:50.250Z,33.63
2022-12-16T18:15:51.716Z,33.13
2022-12-16T18:18:46.182Z,32.00
2022-12-16T18:21:36.388Z,34.27
2022-12-16T18:24:28.336Z,30.97
2022-12-16T18:27:19.250Z,30.93
2022-12-16T18:30:09.585Z,31.93
2022-12-16T18:33:00.110Z,32.50
2022-12-16T18:35:50.489Z,32.87
2022-12-16T18:38:40.574Z,36.70
2022-12-16T18:41:33.437Z,35.33
2022-12-16T18:44:24.768Z,33.47
2022-12-16T18:47:14.950Z,31.70
2022-12-16T18:50:05.327Z,31.93
2022-12-16T18:52:51.886Z,30.60
2022-12-16T18:55:41.880Z,34.17
2022-12-16T19:01:46.382Z,33.10
2022-12-16T19:04:36.658Z,32.07
2022-12-16T19:07:27.301Z,31.70
2022-12-16T19:10:17.627Z,32.10
2022-12-16T19:13:08.165Z,32.03
2022-12-16T19:16:00.571Z,32.83
2022-12-16T19:18:56.143Z,31.07
2022-12-16T19:21:56.509Z,26.83
2022-12-16T19:24:46.964Z,31.20
2022-12-16T19:27:40.354Z,32.97
2022-12-16T19:30:30.820Z,33.80
2022-12-16T19:33:22.334Z,32.90
2022-12-16T19:36:13.917Z,32.87
2022-12-16T19:39:04.193Z,31.73
2022-12-16T19:41:54.409Z,32.13
2022-12-16T19:44:51.983Z,34.63
2022-12-16T19:47:44.118Z,31.90
2022-12-16T19:50:36.043Z,33.37
2022-12-16T19:53:26.398Z,33.33
2022-12-16T19:56:17.077Z,32.70
2022-12-16T19:59:07.330Z,32.87
2022-12-16T20:01:57.801Z,33.73
2022-12-16T20:04:48.805Z,32.00
2022-12-16T20:07:40.291Z,30.17
2022-12-16T20:10:30.626Z,33.40
2022-12-16T20:13:30.077Z,33.57
2022-12-16T20:16:20.690Z,30.43
2022-12-16T20:19:11.458Z,34.43
2022-12-16T20:22:06.231Z,35.80
2022-12-16T20:24:59.078Z,36.07
2022-12-16T20:27:49.335Z,36.83
2022-12-16T20:30:39.527Z,40.47
2022-12-16T20:33:31.110Z,37.70
2022-12-16T20:36:22.271Z,36.73
2022-12-16T20:39:12.685Z,36.87
2022-12-16T20:42:07.249Z,29.03
2022-12-16T20:44:57.898Z,33.93
2022-12-16T20:47:47.793Z,34.83
2022-12-16T20:50:46.117Z,34.40
2022-12-16T20:53:36.949Z,35.70
2022-12-16T20:56:27.735Z,35.10
2022-12-16T20:59:19.509Z,35.63
2022-12-16T21:02:30.237Z,35.00
2022-12-16T21:05:20.449Z,35.43
2022-12-16T21:08:10.569Z,31.43
2022-12-16T21:11:03.444Z,31.47
2022-12-16T21:17:05.383Z,31.40
2022-12-16T21:19:56.197Z,34.47
2022-12-16T21:22:46.092Z,33.10
2022-12-16T21:25:36.302Z,34.83
2022-12-16T21:28:26.394Z,36.30
2022-12-16T21:31:16.672Z,32.30
2022-12-16T21:34:09.408Z,36.07
2022-12-16T21:37:02.684Z,34.47
2022-12-16T21:39:53.488Z,37.77
2022-12-16T21:42:46.476Z,35.13
2022-12-16T21:45:36.780Z,33.03
2022-12-16T21:48:31.479Z,34.03
2022-12-16T21:51:26.432Z,36.03
2022-12-16T21:54:17.823Z,35.83
2022-12-16T21:57:07.766Z,35.23
2022-12-16T21:59:57.918Z,33.73
2022-12-16T22:03:02.827Z,35.70
2022-12-16T22:05:53.706Z,34.33
2022-12-16T22:08:56.197Z,34.87
2022-12-16T22:11:48.305Z,34.97
2022-12-16T22:14:38.994Z,34.80
2022-12-16T22:17:29.374Z,36.17
2022-12-16T22:20:19.794Z,38.33
2022-12-16T22:23:10.148Z,36.50
2022-12-16T22:26:01.586Z,37.30
2022-12-16T22:29:09.652Z,35.03
2022-12-16T22:31:59.719Z,36.60
2022-12-16T22:34:50.114Z,35.00
2022-12-16T22:37:40.567Z,31.30
2022-12-16T22:40:32.932Z,33.27
2022-12-16T22:43:24.437Z,35.97
2022-12-16T22:46:19.301Z,34.73
2022-12-16T22:49:09.739Z,32.90
2022-12-16T22:51:56.889Z,34.13
2022-12-16T22:54:46.981Z,32.47
2022-12-16T22:57:37.502Z,34.17
2022-12-16T23:00:30.435Z,34.07
2022-12-16T23:03:23.796Z,31.23
2022-12-16T23:06:16.481Z,31.53
2022-12-16T23:09:06.708Z,30.80
2022-12-16T23:11:57.985Z,31.73
2022-12-16T23:14:48.235Z,32.07
2022-12-16T23:17:54.560Z,32.10
2022-12-16T23:20:46.594Z,30.47
2022-12-16T23:23:37.444Z,29.10
2022-12-16T23:26:28.320Z,29.17
2022-12-16T23:29:21.651Z,28.27
2022-12-16T23:32:11.991Z,27.97
2022-12-16T23:35:03.896Z,26.83
2022-12-16T23:38:08.748Z,24.73
2022-12-16T23:40:59.175Z,26.50
2022-12-16T23:43:49.434Z,24.83
2022-12-16T23:46:40.208Z,25.07
2022-12-16T23:49:30.820Z,24.70
2022-12-16T23:52:24.603Z,24.43
2022-12-16T23:55:14.783Z,26.33
2022-12-16T23:58:04.932Z,25.40
